createdAt,value
2023-04-29T00:01:25.938Z,15.80
2023-04-29T00:03:54.072Z,19.13
2023-04-29T00:06:21.726Z,19.08
2023-04-29T00:08:49.057Z,12.95
2023-04-29T00:11:16.289Z,13.52
2023-04-29T00:13:43.367Z,20.35
2023-04-29T00:16:11.465Z,17.20
2023-04-29T00:18:38.724Z,18.75
2023-04-29T00:21:06.118Z,17.05
2023-04-29T00:23:36.209Z,16.25
2023-04-29T00:26:03.618Z,16.80
2023-04-29T00:28:30.724Z,17.48
2023-04-29T00:30:57.995Z,14.48
2023-04-29T00:33:25.297Z,16.88
2023-04-29T00:35:52.504Z,15.07
2023-04-29T00:38:19.463Z,15.10
2023-04-29T00:40:46.903Z,13.77
2023-04-29T00:43:13.884Z,16.88
2023-04-29T00:45:40.882Z,20.90
2023-04-29T00:48:08.257Z,16.30
2023-04-29T00:50:36.796Z,14.68
2023-04-29T00:53:04.387Z,18.13
2023-04-29T00:55:32.935Z,19.77
2023-04-29T00:58:00.748Z,15.52
2023-04-29T01:00:28.280Z,15.75
2023-04-29T01:02:57.382Z,17.52
2023-04-29T01:05:25.157Z,16.30
2023-04-29T01:08:21.765Z,19.73
2023-04-29T01:10:53.313Z,19.70
2023-04-29T01:13:38.123Z,16.98
2023-04-29T01:16:17.950Z,13.77
2023-04-29T01:18:54.709Z,15.40
2023-04-29T01:21:22.881Z,16.67
2023-04-29T01:23:56.073Z,16.45
2023-04-29T01:26:24.423Z,13.82
2023-04-29T01:29:09.159Z,13.70
2023-04-29T01:32:05.686Z,14.02
2023-04-29T01:35:18.542Z,13.27
2023-04-29T01:37:55.953Z,16.73
2023-04-29T01:40:24.429Z,11.80
2023-04-29T01:43:03.276Z,14.73
2023-04-29T01:45:34.289Z,14.80
2023-04-29T01:48:02.650Z,13.07
2023-04-29T01:50:30.423Z,12.07
2023-04-29T01:52:57.555Z,12.77
2023-04-29T01:55:24.604Z,13.20
2023-04-29T01:57:52.005Z,14.90
2023-04-29T02:00:19.152Z,14.10
2023-04-29T02:02:46.451Z,8.30
2023-04-29T02:05:13.553Z,17.75
2023-04-29T02:07:41.986Z,16.10
2023-04-29T02:10:09.641Z,12.40
2023-04-29T02:12:36.623Z,12.55
2023-04-29T02:15:04.089Z,15.65
2023-04-29T02:17:31.146Z,16.45
2023-04-29T02:19:58.098Z,14.68
2023-04-29T02:22:25.074Z,17.08
2023-04-29T02:24:52.121Z,11.98
2023-04-29T02:27:19.118Z,13.35
2023-04-29T02:29:46.090Z,13.32
2023-04-29T02:32:15.468Z,17.42
2023-04-29T02:34:42.644Z,20.30
2023-04-29T02:37:09.595Z,15.27
2023-04-29T02:39:36.600Z,17.83
2023-04-29T02:42:03.624Z,9.90
2023-04-29T02:44:31.465Z,14.35
2023-04-29T02:46:59.752Z,12.60
2023-04-29T02:49:27.945Z,14.38
2023-04-29T02:51:54.916Z,14.10
2023-04-29T02:54:21.922Z,15.35
2023-04-29T02:56:48.860Z,12.60
2023-04-29T02:59:16.026Z,8.88
2023-04-29T03:01:43.350Z,19.27
2023-04-29T03:04:10.825Z,16.90
2023-04-29T03:06:38.173Z,13.77
2023-04-29T03:09:05.573Z,10.45
2023-04-29T03:11:32.612Z,11.50
2023-04-29T03:13:59.677Z,11.57
2023-04-29T03:16:28.783Z,12.00
2023-04-29T03:18:55.990Z,10.32
2023-04-29T03:21:22.995Z,11.57
2023-04-29T03:23:50.391Z,13.50
2023-04-29T03:26:17.518Z,14.25
2023-04-29T03:28:44.621Z,12.93
2023-04-29T03:31:12.358Z,10.02
2023-04-29T03:33:39.364Z,12.43
2023-04-29T03:36:08.552Z,14.02
2023-04-29T03:38:35.854Z,12.02
2023-04-29T03:41:03.280Z,12.85
2023-04-29T03:43:30.409Z,10.43
2023-04-29T03:45:57.425Z,13.00
2023-04-29T03:48:24.786Z,13.25
2023-04-29T03:50:51.895Z,13.90
2023-04-29T03:53:19.036Z,12.93
2023-04-29T03:55:53.945Z,9.82
2023-04-29T03:58:20.927Z,8.75
2023-04-29T04:00:48.054Z,9.40
2023-04-29T04:03:15.159Z,10.20
2023-04-29T04:05:42.223Z,11.20
2023-04-29T04:08:09.340Z,9.45
2023-04-29T04:10:37.256Z,12.63
2023-04-29T04:13:04.234Z,9.32
2023-04-29T04:15:31.233Z,9.02
2023-04-29T04:17:58.261Z,13.07
2023-04-29T04:20:25.470Z,10.18
2023-04-29T04:22:54.741Z,9.45
2023-04-29T04:25:21.773Z,12.85
2023-04-29T04:27:48.793Z,8.40
2023-04-29T04:30:27.561Z,8.77
2023-04-29T04:32:54.610Z,11.52
2023-04-29T04:35:21.650Z,11.43
2023-04-29T04:37:48.640Z,9.45
2023-04-29T04:40:20.385Z,11.38
2023-04-29T04:42:47.315Z,11.70
2023-04-29T04:45:14.802Z,10.43
2023-04-29T04:47:42.541Z,5.90
2023-04-29T04:50:10.048Z,9.93
2023-04-29T04:52:37.471Z,9.20
2023-04-29T04:55:04.869Z,9.15
2023-04-29T04:57:31.844Z,9.20
2023-04-29T04:59:59.034Z,16.92
2023-04-29T05:02:26.319Z,9.85
2023-04-29T05:04:55.081Z,11.68
2023-04-29T05:07:22.176Z,13.48
2023-04-29T05:09:49.221Z,9.68
2023-04-29T05:12:16.393Z,12.77
2023-04-29T05:14:43.402Z,9.13
2023-04-29T05:17:11.363Z,13.50
2023-04-29T05:19:38.327Z,12.50
2023-04-29T05:22:05.283Z,11.10
2023-04-29T05:24:32.620Z,12.25
2023-04-29T05:26:59.591Z,12.35
2023-04-29T05:29:27.274Z,13.25
2023-04-29T05:31:54.302Z,9.57
2023-04-29T05:34:21.373Z,9.65
2023-04-29T05:36:48.310Z,11.77
2023-04-29T05:39:15.696Z,8.57
2023-04-29T05:41:42.685Z,12.02
2023-04-29T05:44:09.688Z,9.25
2023-04-29T05:46:36.820Z,10.35
2023-04-29T05:49:03.906Z,10.38
2023-04-29T05:51:31.745Z,10.15
2023-04-29T05:54:00.250Z,10.30
2023-04-29T05:56:27.302Z,11.48
2023-04-29T05:58:54.265Z,11.02
2023-04-29T06:01:21.765Z,13.13
2023-04-29T06:03:48.954Z,10.65
2023-04-29T06:06:16.641Z,8.52
2023-04-29T06:08:43.718Z,12.02
2023-04-29T06:11:10.688Z,8.85
2023-04-29T06:13:37.762Z,11.05
2023-04-29T06:16:05.538Z,10.75
2023-04-29T06:18:32.567Z,10.18
2023-04-29T06:20:59.520Z,8.10
2023-04-29T06:23:26.653Z,10.77
2023-04-29T06:25:53.642Z,10.18
2023-04-29T06:28:20.902Z,12.40
2023-04-29T06:30:47.883Z,8.77
2023-04-29T06:33:15.022Z,7.03
2023-04-29T06:35:42.125Z,9.43
2023-04-29T06:38:09.220Z,8.98
2023-04-29T06:40:36.302Z,10.98
2023-04-29T06:43:04.578Z,9.43
2023-04-29T06:45:31.903Z,14.35
2023-04-29T06:47:58.927Z,10.07
2023-04-29T06:50:26.251Z,10.32
2023-04-29T06:52:53.452Z,9.93
2023-04-29T06:55:20.993Z,9.77
2023-04-29T06:57:48.178Z,10.63
2023-04-29T07:00:16.097Z,9.75
2023-04-29T07:02:43.301Z,11.70
2023-04-29T07:05:10.791Z,9.85
2023-04-29T07:07:37.846Z,10.60
2023-04-29T07:10:05.591Z,8.02
2023-04-29T07:12:32.568Z,9.98
2023-04-29T07:15:00.227Z,11.40
2023-04-29T07:17:31.493Z,10.38
2023-04-29T07:19:58.503Z,11.00
2023-04-29T07:22:26.030Z,9.35
2023-04-29T07:24:57.078Z,9.65
2023-04-29T07:27:24.688Z,9.68
2023-04-29T07:29:51.700Z,11.65
2023-04-29T07:32:18.775Z,6.35
2023-04-29T07:34:45.778Z,4.43
2023-04-29T07:37:12.906Z,8.50
2023-04-29T07:39:39.940Z,6.90
2023-04-29T07:42:06.916Z,11.18
2023-04-29T07:44:33.889Z,8.15
2023-04-29T07:47:00.990Z,9.25
2023-04-29T07:49:28.084Z,12.40
2023-04-29T07:51:55.073Z,9.23
2023-04-29T07:54:22.464Z,8.98
2023-04-29T07:56:49.798Z,1.30
2023-04-29T07:59:16.925Z,9.82
2023-04-29T08:01:44.040Z,10.25
2023-04-29T08:04:11.200Z,8.05
2023-04-29T08:06:38.388Z,11.15
2023-04-29T08:09:05.324Z,10.80
2023-04-29T08:11:32.334Z,4.20
2023-04-29T08:14:00.254Z,2.72
2023-04-29T08:16:28.049Z,9.82
2023-04-29T08:18:55.010Z,10.15
2023-04-29T08:21:22.119Z,6.97
2023-04-29T08:23:49.111Z,7.45
2023-04-29T08:26:17.721Z,11.32
2023-04-29T08:28:45.050Z,8.52
2023-04-29T08:31:21.892Z,8.52
2023-04-29T08:33:49.338Z,5.32
2023-04-29T08:36:16.342Z,9.32
2023-04-29T08:38:43.466Z,10.93
2023-04-29T08:41:10.671Z,10.13
2023-04-29T08:43:37.962Z,10.45
2023-04-29T08:46:05.278Z,13.90
2023-04-29T08:48:32.913Z,10.15
2023-04-29T08:51:01.746Z,9.60
2023-04-29T08:53:29.444Z,8.80
2023-04-29T08:56:01.325Z,1.67
2023-04-29T08:58:29.829Z,7.10
2023-04-29T09:00:57.175Z,7.95
2023-04-29T09:04:01.469Z,7.28
2023-04-29T09:06:28.619Z,8.05
2023-04-29T09:08:56.046Z,5.20
2023-04-29T09:11:23.344Z,8.57
2023-04-29T09:13:50.555Z,13.40
2023-04-29T09:16:17.534Z,8.73
2023-04-29T09:18:52.316Z,7.28
2023-04-29T09:21:24.496Z,10.50
2023-04-29T09:24:00.076Z,10.50
2023-04-29T09:26:28.220Z,9.50
2023-04-29T09:29:18.449Z,6.45
2023-04-29T09:31:47.075Z,10.65
2023-04-29T09:34:14.576Z,5.60
2023-04-29T09:36:51.176Z,8.15
2023-04-29T09:39:22.117Z,8.75
2023-04-29T09:41:54.855Z,5.28
2023-04-29T09:47:09.539Z,8.15
2023-04-29T09:49:38.652Z,9.48
2023-04-29T09:52:08.849Z,7.53
2023-04-29T09:54:38.598Z,7.63
2023-04-29T09:57:07.431Z,5.85
2023-04-29T09:59:37.677Z,8.52
2023-04-29T10:02:15.724Z,6.97
2023-04-29T10:04:45.637Z,9.05
2023-04-29T10:07:17.774Z,8.60
2023-04-29T10:09:49.662Z,9.65
2023-04-29T10:12:19.949Z,8.55
2023-04-29T10:15:02.537Z,12.55
2023-04-29T10:17:49.583Z,5.05
2023-04-29T10:20:24.492Z,7.28
2023-04-29T10:22:54.928Z,11.88
2023-04-29T10:25:24.587Z,5.57
2023-04-29T10:27:54.957Z,10.38
2023-04-29T10:30:22.796Z,6.60
2023-04-29T10:32:52.499Z,3.72
2023-04-29T10:35:25.613Z,4.38
2023-04-29T10:37:56.176Z,4.05
2023-04-29T10:40:48.956Z,10.25
2023-04-29T10:43:16.508Z,9.60
2023-04-29T10:45:43.572Z,3.13
2023-04-29T10:48:13.261Z,6.93
2023-04-29T10:50:45.324Z,7.72
2023-04-29T10:53:12.667Z,8.43
2023-04-29T10:55:40.200Z,8.77
2023-04-29T10:58:52.452Z,6.53
2023-04-29T11:01:39.415Z,3.60
2023-04-29T11:04:06.491Z,10.40
2023-04-29T11:06:36.477Z,2.78
2023-04-29T11:09:34.873Z,7.10
2023-04-29T11:12:06.097Z,5.65
2023-04-29T11:14:40.452Z,6.70
2023-04-29T11:17:14.199Z,6.82
2023-04-29T11:19:51.178Z,5.82
2023-04-29T11:22:18.270Z,5.20
2023-04-29T11:25:02.040Z,6.68
2023-04-29T11:27:35.740Z,5.13
2023-04-29T11:30:06.910Z,4.50
2023-04-29T11:32:45.933Z,9.23
2023-04-29T11:35:13.213Z,7.75
2023-04-29T11:37:42.649Z,3.50
2023-04-29T11:40:11.751Z,2.95
2023-04-29T11:42:45.632Z,6.55
2023-04-29T11:45:13.243Z,6.65
2023-04-29T11:47:46.144Z,6.57
2023-04-29T11:50:16.702Z,9.45
2023-04-29T11:52:44.853Z,6.30
2023-04-29T11:55:12.577Z,5.85
2023-04-29T11:57:40.652Z,5.88
2023-04-29T12:00:13.023Z,5.38
2023-04-29T12:02:44.963Z,2.95
2023-04-29T12:05:13.545Z,5.33
2023-04-29T12:07:41.226Z,9.18
2023-04-29T12:10:11.029Z,6.32
2023-04-29T12:12:44.023Z,5.63
2023-04-29T12:15:12.671Z,7.90
2023-04-29T12:17:40.962Z,5.55
2023-04-29T12:20:12.752Z,4.32
2023-04-29T12:22:41.558Z,1.98
2023-04-29T12:25:09.332Z,5.93
2023-04-29T12:27:39.535Z,5.45
2023-04-29T12:30:10.662Z,5.05
2023-04-29T12:32:38.808Z,8.23
2023-04-29T12:35:06.266Z,5.88
2023-04-29T12:37:35.326Z,4.78
2023-04-29T12:40:02.657Z,6.90
2023-04-29T12:42:34.340Z,4.10
2023-04-29T12:45:01.791Z,5.55
2023-04-29T12:47:37.268Z,10.77
2023-04-29T12:50:07.203Z,4.68
2023-04-29T12:52:36.630Z,5.30
2023-04-29T12:55:04.914Z,5.90
2023-04-29T12:57:32.208Z,6.50
2023-04-29T12:59:59.463Z,7.70
2023-04-29T13:02:26.673Z,6.95
2023-04-29T13:04:54.040Z,4.88
2023-04-29T13:07:21.359Z,5.03
2023-04-29T13:09:48.439Z,8.18
2023-04-29T13:12:15.484Z,6.15
2023-04-29T13:14:43.876Z,2.80
2023-04-29T13:17:11.209Z,5.65
2023-04-29T13:19:50.353Z,6.78
2023-04-29T13:22:19.075Z,6.60
2023-04-29T13:24:46.811Z,5.70
2023-04-29T13:27:13.977Z,7.53
2023-04-29T13:29:41.061Z,5.10
2023-04-29T13:32:09.166Z,5.78
2023-04-29T13:34:36.522Z,5.07
2023-04-29T13:37:03.636Z,4.88
2023-04-29T13:39:30.722Z,4.63
2023-04-29T13:41:59.705Z,3.97
2023-04-29T13:44:34.110Z,6.70
2023-04-29T13:47:06.883Z,4.15
2023-04-29T13:50:09.867Z,4.70
2023-04-29T13:55:14.835Z,5.88
2023-04-29T14:00:31.570Z,5.95
2023-04-29T14:05:27.909Z,5.68
2023-04-29T14:07:55.012Z,4.22
2023-04-29T14:10:22.142Z,5.18
2023-04-29T14:12:49.399Z,4.63
2023-04-29T14:15:16.739Z,4.65
2023-04-29T14:17:43.741Z,6.18
2023-04-29T14:20:11.439Z,6.93
2023-04-29T14:22:38.562Z,6.05
2023-04-29T14:25:06.509Z,4.28
2023-04-29T14:27:34.791Z,4.13
2023-04-29T14:30:02.194Z,4.82
2023-04-29T14:32:29.238Z,3.53
2023-04-29T14:34:56.211Z,5.22
2023-04-29T14:37:23.166Z,2.78
2023-04-29T14:39:50.124Z,3.67
2023-04-29T14:42:18.676Z,5.57
2023-04-29T14:44:45.628Z,5.75
2023-04-29T14:47:12.615Z,5.22
2023-04-29T14:49:39.747Z,4.70
2023-04-29T14:52:06.668Z,8.98
2023-04-29T14:54:33.668Z,5.25
2023-04-29T14:57:00.602Z,3.72
2023-04-29T14:59:30.064Z,6.30
2023-04-29T15:01:57.762Z,3.63
2023-04-29T15:04:24.815Z,4.97
2023-04-29T15:06:52.017Z,3.83
2023-04-29T15:09:19.279Z,3.88
2023-04-29T15:11:46.228Z,4.90
2023-04-29T15:14:13.173Z,3.83
2023-04-29T15:16:40.123Z,6.13
2023-04-29T15:19:07.168Z,4.03
2023-04-29T15:21:34.410Z,6.25
2023-04-29T15:24:03.030Z,5.75
2023-04-29T15:26:30.067Z,3.95
2023-04-29T15:28:57.055Z,4.18
2023-04-29T15:31:25.476Z,3.83
2023-04-29T15:33:55.157Z,3.08
2023-04-29T15:36:35.291Z,3.67
2023-04-29T15:39:02.306Z,5.85
2023-04-29T15:41:29.259Z,4.82
2023-04-29T15:43:57.253Z,5.85
2023-04-29T15:46:24.410Z,3.25
2023-04-29T15:48:51.568Z,4.40
2023-04-29T15:51:18.827Z,3.95
2023-04-29T15:53:45.905Z,5.22
2023-04-29T15:56:13.570Z,5.10
2023-04-29T15:58:40.709Z,4.43
2023-04-29T16:01:07.769Z,5.00
2023-04-29T16:03:34.905Z,4.57
2023-04-29T16:06:02.137Z,3.28
2023-04-29T16:08:29.181Z,2.45
2023-04-29T16:10:56.156Z,2.78
2023-04-29T16:13:24.134Z,3.35
2023-04-29T16:15:51.223Z,5.35
2023-04-29T16:18:19.253Z,2.10
2023-04-29T16:20:46.353Z,4.30
2023-04-29T16:23:13.422Z,3.05
2023-04-29T16:25:41.903Z,4.35
2023-04-29T16:28:09.204Z,4.43
2023-04-29T16:30:36.549Z,2.28
2023-04-29T16:33:03.676Z,5.63
2023-04-29T16:35:31.073Z,3.38
2023-04-29T16:37:58.580Z,3.92
2023-04-29T16:40:25.589Z,4.22
2023-04-29T16:42:53.508Z,3.53
2023-04-29T16:45:23.188Z,3.10
2023-04-29T16:47:51.299Z,4.78
2023-04-29T16:50:18.838Z,4.97
2023-04-29T16:52:45.947Z,2.60
2023-04-29T16:55:13.403Z,6.00
2023-04-29T16:57:40.437Z,5.63
2023-04-29T17:00:14.432Z,5.65
2023-04-29T17:02:43.047Z,5.90
2023-04-29T17:05:11.039Z,5.90
2023-04-29T17:07:39.521Z,4.85
2023-04-29T17:10:08.261Z,5.93
2023-04-29T17:12:35.583Z,4.40
2023-04-29T17:15:02.839Z,5.63
2023-04-29T17:17:30.193Z,5.85
2023-04-29T17:19:57.737Z,4.72
2023-04-29T17:22:24.733Z,5.20
2023-04-29T17:24:51.732Z,6.15
2023-04-29T17:27:18.727Z,7.90
2023-04-29T17:29:46.165Z,5.20
2023-04-29T17:32:15.501Z,5.32
2023-04-29T17:34:42.575Z,5.55
2023-04-29T17:37:10.045Z,4.88
2023-04-29T17:39:37.031Z,7.80
2023-04-29T17:42:04.102Z,5.75
2023-04-29T17:44:31.103Z,6.32
2023-04-29T17:46:58.225Z,7.20
2023-04-29T17:49:25.326Z,4.47
2023-04-29T17:51:52.559Z,3.85
2023-04-29T17:54:19.579Z,3.42
2023-04-29T17:56:46.554Z,4.53
2023-04-29T17:59:13.561Z,3.60
2023-04-29T18:01:40.658Z,3.72
2023-04-29T18:04:07.802Z,5.82
2023-04-29T18:06:35.020Z,5.68
2023-04-29T18:09:02.063Z,6.35
2023-04-29T18:11:29.378Z,5.72
2023-04-29T18:13:56.437Z,4.68
2023-04-29T18:16:23.495Z,4.78
2023-04-29T18:18:56.554Z,4.75
2023-04-29T18:21:25.997Z,3.95
2023-04-29T18:23:53.416Z,4.07
2023-04-29T18:26:20.922Z,6.65
2023-04-29T18:28:48.678Z,5.13
2023-04-29T18:31:17.347Z,6.28
2023-04-29T18:33:45.203Z,5.30
2023-04-29T18:36:14.193Z,5.32
2023-04-29T18:38:41.431Z,5.30
2023-04-29T18:41:08.704Z,5.28
2023-04-29T18:43:36.635Z,5.35
2023-04-29T18:46:03.879Z,5.07
2023-04-29T18:48:31.456Z,5.43
2023-04-29T18:51:00.467Z,4.72
2023-04-29T18:53:27.517Z,5.50
2023-04-29T18:55:54.685Z,7.22
2023-04-29T18:58:22.276Z,5.15
2023-04-29T19:00:49.587Z,5.88
2023-04-29T19:03:16.528Z,4.78
2023-04-29T19:05:43.924Z,5.05
2023-04-29T19:08:11.102Z,3.67
2023-04-29T19:10:38.127Z,5.38
2023-04-29T19:13:05.432Z,5.05
2023-04-29T19:15:32.568Z,5.70
2023-04-29T19:17:59.573Z,4.35
2023-04-29T19:20:27.042Z,4.72
2023-04-29T19:22:54.046Z,6.13
2023-04-29T19:25:21.746Z,4.65
2023-04-29T19:27:49.178Z,4.10
2023-04-29T19:30:16.635Z,4.70
2023-04-29T19:32:46.262Z,4.55
2023-04-29T19:35:13.366Z,3.38
2023-04-29T19:37:40.888Z,3.95
2023-04-29T19:40:10.885Z,3.33
2023-04-29T19:42:39.419Z,3.78
2023-04-29T19:45:08.132Z,7.20
2023-04-29T19:47:36.214Z,3.47
2023-04-29T19:50:05.352Z,2.95
2023-04-29T19:52:32.570Z,2.90
2023-04-29T19:54:59.568Z,3.97
2023-04-29T19:57:28.357Z,4.63
2023-04-29T19:59:55.803Z,2.53
2023-04-29T20:02:23.099Z,3.35
2023-04-29T20:04:50.160Z,2.88
2023-04-29T20:07:18.244Z,3.65
2023-04-29T20:09:45.855Z,2.25
2023-04-29T20:12:12.953Z,3.17
2023-04-29T20:14:40.009Z,4.20
2023-04-29T20:17:07.778Z,3.38
2023-04-29T20:19:34.878Z,4.03
2023-04-29T20:22:01.958Z,2.45
2023-04-29T20:24:29.089Z,2.97
2023-04-29T20:26:56.357Z,3.05
2023-04-29T20:29:23.408Z,4.57
2023-04-29T20:31:50.739Z,3.22
2023-04-29T20:34:17.792Z,3.47
2023-04-29T20:36:44.933Z,2.22
2023-04-29T20:39:11.909Z,4.40
2023-04-29T20:41:38.990Z,3.63
2023-04-29T20:44:06.075Z,2.47
2023-04-29T20:46:33.092Z,4.05
2023-04-29T20:49:00.060Z,4.70
2023-04-29T20:51:27.649Z,2.88
2023-04-29T20:53:54.768Z,3.45
2023-04-29T20:56:21.742Z,3.63
2023-04-29T20:58:48.849Z,4.75
2023-04-29T21:01:15.931Z,3.80
2023-04-29T21:03:43.041Z,2.95
2023-04-29T21:06:10.154Z,5.70
2023-04-29T21:08:37.277Z,2.92
2023-04-29T21:11:05.366Z,2.83
2023-04-29T21:13:32.384Z,3.35
2023-04-29T21:15:59.401Z,4.07
2023-04-29T21:18:26.445Z,4.15
2023-04-29T21:20:53.537Z,4.03
2023-04-29T21:23:20.597Z,3.97
2023-04-29T21:25:47.567Z,3.17
2023-04-29T21:28:16.788Z,3.00
2023-04-29T21:30:44.062Z,3.63
2023-04-29T21:33:11.058Z,4.95
2023-04-29T21:35:41.978Z,3.63
2023-04-29T21:38:09.264Z,4.35
2023-04-29T21:40:41.133Z,5.05
2023-04-29T21:43:10.001Z,3.43
2023-04-29T21:45:37.716Z,3.67
2023-04-29T21:48:18.373Z,5.35
2023-04-29T21:50:46.131Z,3.83
2023-04-29T21:53:16.151Z,3.88
2023-04-29T21:55:43.834Z,2.78
2023-04-29T21:58:11.370Z,4.30
2023-04-29T22:00:41.000Z,2.97
2023-04-29T22:03:09.486Z,3.03
2023-04-29T22:05:37.271Z,2.95
2023-04-29T22:08:07.482Z,4.40
2023-04-29T22:10:34.734Z,3.20
2023-04-29T22:13:01.810Z,4.45
2023-04-29T22:15:29.618Z,3.05
2023-04-29T22:17:57.343Z,5.90
2023-04-29T22:20:25.343Z,3.45
2023-04-29T22:22:52.521Z,2.80
2023-04-29T22:25:21.659Z,3.08
2023-04-29T22:27:49.758Z,5.40
2023-04-29T22:30:17.894Z,5.40
2023-04-29T22:32:45.075Z,2.55
2023-04-29T22:35:12.213Z,4.85
2023-04-29T22:37:39.243Z,4.78
2023-04-29T22:40:07.653Z,3.03
2023-04-29T22:42:34.712Z,2.75
2023-04-29T22:45:01.708Z,5.30
2023-04-29T22:47:29.016Z,3.28
2023-04-29T22:49:56.349Z,5.03
2023-04-29T22:52:23.550Z,5.47
2023-04-29T22:54:50.639Z,4.18
2023-04-29T22:57:17.569Z,2.95
2023-04-29T22:59:44.528Z,2.70
2023-04-29T23:02:11.961Z,5.72
2023-04-29T23:04:39.011Z,3.20
2023-04-29T23:07:06.069Z,3.60
2023-04-29T23:09:33.175Z,3.75
2023-04-29T23:12:00.136Z,2.47
2023-04-29T23:14:27.097Z,2.65
2023-04-29T23:16:54.043Z,3.83
2023-04-29T23:19:21.061Z,5.80
2023-04-29T23:21:48.033Z,2.30
2023-04-29T23:24:15.013Z,3.80
2023-04-29T23:26:41.955Z,3.88
2023-04-29T23:29:08.966Z,3.88
2023-04-29T23:31:36.083Z,6.22
2023-04-29T23:34:03.089Z,5.68
2023-04-29T23:36:30.069Z,5.57
2023-04-29T23:38:57.046Z,4.03
2023-04-29T23:41:24.194Z,3.45
2023-04-29T23:43:51.168Z,3.78
2023-04-29T23:46:18.442Z,8.02
2023-04-29T23:48:45.456Z,3.50
2023-04-29T23:51:12.523Z,3.78
2023-04-29T23:53:40.216Z,3.78
2023-04-29T23:56:07.630Z,6.03
2023-04-29T23:58:34.613Z,3.70
